createdAt,value
2018-09-20T00:01:35.179Z,21.20
2018-09-20T00:03:38.686Z,21.20
2018-09-20T00:05:42.283Z,21.30
2018-09-20T00:07:45.895Z,21.20
2018-09-20T00:09:49.703Z,21.20
2018-09-20T00:11:53.208Z,21.00
2018-09-20T00:13:57.017Z,21.10
2018-09-20T00:16:00.520Z,21.10
2018-09-20T00:18:04.060Z,21.10
2018-09-20T00:20:07.915Z,21.20
2018-09-20T00:22:11.652Z,21.20
2018-09-20T00:24:15.300Z,21.10
2018-09-20T00:26:18.851Z,21.00
2018-09-20T00:28:22.448Z,20.90
2018-09-20T00:30:26.084Z,20.90
2018-09-20T00:32:29.655Z,20.90
2018-09-20T00:34:33.191Z,20.70
2018-09-20T00:36:37.012Z,20.60
2018-09-20T00:38:40.627Z,20.70
2018-09-20T00:40:44.235Z,20.70
2018-09-20T00:42:47.779Z,20.80
2018-09-20T00:44:51.285Z,20.80
2018-09-20T00:46:54.867Z,20.80
2018-09-20T00:48:58.433Z,20.80
2018-09-20T00:51:01.974Z,20.80
2018-09-20T00:53:06.038Z,20.80
2018-09-20T00:55:09.796Z,20.90
2018-09-20T00:57:13.344Z,21.00
2018-09-20T00:59:17.099Z,21.10
2018-09-20T01:01:20.597Z,21.00
2018-09-20T01:03:24.190Z,20.90
2018-09-20T01:05:27.933Z,20.80
2018-09-20T01:07:31.441Z,20.70
2018-09-20T01:09:35.099Z,20.10
2018-09-20T01:11:38.997Z,19.90
2018-09-20T01:13:42.515Z,20.00
2018-09-20T01:15:46.208Z,20.00
2018-09-20T01:17:49.740Z,19.80
2018-09-20T01:19:53.264Z,19.90
2018-09-20T01:21:57.104Z,20.00
2018-09-20T01:24:00.698Z,20.20
2018-09-20T01:26:04.300Z,20.30
2018-09-20T01:28:07.851Z,20.40
2018-09-20T01:30:11.365Z,20.50
2018-09-20T01:32:15.021Z,20.30
2018-09-20T01:34:18.643Z,20.20
2018-09-20T01:36:22.177Z,20.10
2018-09-20T01:38:25.848Z,20.10
2018-09-20T01:40:29.358Z,20.10
2018-09-20T01:42:33.117Z,19.90
2018-09-20T01:44:36.754Z,19.90
2018-09-20T01:46:40.255Z,20.10
2018-09-20T01:48:43.909Z,20.00
2018-09-20T01:50:47.687Z,19.90
2018-09-20T01:52:51.210Z,20.00
2018-09-20T01:54:54.726Z,20.10
2018-09-20T01:56:58.305Z,20.20
2018-09-20T01:59:01.935Z,20.10
2018-09-20T02:01:05.744Z,20.20
2018-09-20T02:03:09.306Z,20.20
2018-09-20T02:05:12.828Z,20.30
2018-09-20T02:07:16.399Z,20.20
2018-09-20T02:09:19.920Z,20.10
2018-09-20T02:11:23.512Z,19.80
2018-09-20T02:13:27.068Z,19.50
2018-09-20T02:15:30.795Z,19.70
2018-09-20T02:17:34.362Z,19.80
2018-09-20T02:19:37.847Z,19.80
2018-09-20T02:21:41.359Z,19.80
2018-09-20T02:23:45.009Z,19.90
2018-09-20T02:25:48.543Z,20.00
2018-09-20T02:27:52.223Z,20.10
2018-09-20T02:29:55.866Z,20.20
2018-09-20T02:31:59.517Z,20.30
2018-09-20T02:34:03.083Z,20.20
2018-09-20T02:36:06.713Z,20.20
2018-09-20T02:38:10.390Z,20.10
2018-09-20T02:40:13.908Z,20.10
2018-09-20T02:42:17.473Z,20.10
2018-09-20T02:44:21.008Z,19.80
2018-09-20T02:46:24.548Z,19.60
2018-09-20T02:48:28.211Z,19.30
2018-09-20T02:50:31.895Z,19.20
2018-09-20T02:52:35.460Z,19.30
2018-09-20T02:54:38.965Z,19.10
2018-09-20T02:56:42.721Z,18.70
2018-09-20T02:58:46.384Z,18.70
2018-09-20T03:00:50.235Z,19.10
2018-09-20T03:02:53.804Z,19.30
2018-09-20T03:04:57.484Z,19.50
2018-09-20T03:07:01.085Z,19.60
2018-09-20T03:09:06.581Z,19.70
2018-09-20T03:11:10.377Z,19.70
2018-09-20T03:13:13.908Z,19.70
2018-09-20T03:15:17.533Z,19.70
2018-09-20T03:17:21.093Z,19.80
2018-09-20T03:19:24.714Z,19.90
2018-09-20T03:21:28.412Z,19.90
2018-09-20T03:23:31.998Z,19.80
2018-09-20T03:25:35.793Z,19.60
2018-09-20T03:27:39.443Z,19.60
2018-09-20T03:29:42.997Z,19.60
2018-09-20T03:31:46.492Z,19.60
2018-09-20T03:33:50.004Z,19.60
2018-09-20T03:35:53.584Z,19.50
2018-09-20T03:37:57.099Z,19.70
2018-09-20T03:40:01.174Z,19.60
2018-09-20T03:42:04.849Z,19.70
2018-09-20T03:44:08.364Z,19.70
2018-09-20T03:46:12.243Z,19.70
2018-09-20T03:48:15.869Z,19.70
2018-09-20T03:50:19.493Z,19.70
2018-09-20T03:52:23.009Z,19.70
2018-09-20T03:54:26.612Z,19.70
2018-09-20T03:56:30.152Z,19.50
2018-09-20T03:58:33.689Z,19.40
2018-09-20T04:00:37.220Z,19.40
2018-09-20T04:02:40.900Z,19.50
2018-09-20T04:04:44.488Z,19.50
2018-09-20T04:06:48.104Z,19.30
2018-09-20T04:08:51.698Z,19.30
2018-09-20T04:10:55.444Z,19.30
2018-09-20T04:12:59.040Z,19.50
2018-09-20T04:15:02.610Z,19.60
2018-09-20T04:17:06.268Z,19.70
2018-09-20T04:19:10.100Z,19.80
2018-09-20T04:21:17.869Z,19.80
2018-09-20T04:23:21.385Z,19.60
2018-09-20T04:25:24.903Z,19.50
2018-09-20T04:27:28.461Z,19.50
2018-09-20T04:29:32.093Z,19.50
2018-09-20T04:31:35.673Z,19.30
2018-09-20T04:33:39.329Z,19.10
2018-09-20T04:35:42.865Z,19.10
2018-09-20T04:37:46.510Z,19.30
2018-09-20T04:39:50.034Z,19.50
2018-09-20T04:41:53.671Z,19.40
2018-09-20T04:43:57.391Z,19.30
2018-09-20T04:46:00.923Z,19.30
2018-09-20T04:48:04.495Z,19.20
2018-09-20T04:50:08.466Z,19.30
2018-09-20T04:52:12.000Z,19.20
2018-09-20T04:54:15.512Z,19.30
2018-09-20T04:56:19.031Z,19.40
2018-09-20T04:58:22.605Z,19.30
2018-09-20T05:00:26.240Z,19.20
2018-09-20T05:02:29.720Z,19.10
2018-09-20T05:04:33.246Z,19.10
2018-09-20T05:06:36.874Z,19.20
2018-09-20T05:08:40.382Z,19.20
2018-09-20T05:10:43.997Z,19.20
2018-09-20T05:12:47.728Z,19.20
2018-09-20T05:14:51.249Z,19.00
2018-09-20T05:16:54.842Z,18.60
2018-09-20T05:18:58.552Z,18.50
2018-09-20T05:21:02.084Z,18.70
2018-09-20T05:23:05.813Z,18.80
2018-09-20T05:25:09.374Z,18.80
2018-09-20T05:27:12.888Z,18.80
2018-09-20T05:29:16.520Z,18.90
2018-09-20T05:31:20.056Z,18.70
2018-09-20T05:33:23.590Z,18.80
2018-09-20T05:35:27.354Z,18.90
2018-09-20T05:37:30.840Z,18.70
2018-09-20T05:39:34.591Z,18.80
2018-09-20T05:41:38.158Z,19.00
2018-09-20T05:43:41.718Z,19.10
2018-09-20T05:45:45.432Z,19.30
2018-09-20T05:47:49.247Z,19.10
2018-09-20T05:49:52.952Z,19.20
2018-09-20T05:51:56.487Z,19.10
2018-09-20T05:54:00.122Z,19.00
2018-09-20T05:56:03.791Z,18.60
2018-09-20T05:58:07.336Z,18.30
2018-09-20T06:00:10.922Z,18.20
2018-09-20T06:02:14.564Z,18.40
2018-09-20T06:04:18.281Z,18.40
2018-09-20T06:06:21.855Z,18.70
2018-09-20T06:08:25.481Z,19.00
2018-09-20T06:10:35.605Z,19.20
2018-09-20T06:12:39.219Z,19.30
2018-09-20T06:14:42.905Z,19.50
2018-09-20T06:16:46.424Z,19.40
2018-09-20T06:18:49.967Z,19.50
2018-09-20T06:20:53.623Z,19.50
2018-09-20T06:22:57.109Z,19.50
2018-09-20T06:25:00.705Z,19.60
2018-09-20T06:27:04.800Z,19.60
2018-09-20T06:29:08.317Z,19.60
2018-09-20T06:31:11.916Z,19.80
2018-09-20T06:33:15.528Z,19.90
2018-09-20T06:35:20.312Z,19.80
2018-09-20T06:37:23.840Z,19.70
2018-09-20T06:39:27.534Z,19.80
2018-09-20T06:41:31.117Z,19.70
2018-09-20T06:43:34.647Z,20.00
2018-09-20T06:45:38.300Z,20.20
2018-09-20T06:47:41.995Z,20.30
2018-09-20T06:49:45.725Z,20.30
2018-09-20T06:51:49.243Z,20.00
2018-09-20T06:53:52.993Z,20.00
2018-09-20T06:55:56.530Z,20.00
2018-09-20T06:58:00.161Z,20.30
2018-09-20T07:00:05.325Z,20.10
2018-09-20T07:02:08.833Z,20.30
2018-09-20T07:04:12.360Z,20.60
2018-09-20T07:06:15.929Z,20.80
2018-09-20T07:08:19.492Z,21.00
2018-09-20T07:10:23.110Z,21.20
2018-09-20T07:12:27.261Z,21.40
2018-09-20T07:14:30.979Z,21.50
2018-09-20T07:16:34.589Z,21.60
2018-09-20T07:18:38.136Z,21.70
2018-09-20T07:20:41.831Z,21.60
2018-09-20T07:22:45.337Z,21.70
2018-09-20T07:24:48.839Z,21.80
2018-09-20T07:26:52.348Z,21.90
2018-09-20T07:28:55.943Z,21.90
2018-09-20T07:30:59.537Z,21.60
2018-09-20T07:33:03.274Z,21.70
2018-09-20T07:35:07.167Z,21.90
2018-09-20T07:37:10.796Z,22.00
2018-09-20T07:39:14.335Z,22.10
2018-09-20T07:41:17.923Z,22.20
2018-09-20T07:43:21.679Z,22.20
2018-09-20T07:45:25.164Z,22.30
2018-09-20T07:47:28.747Z,22.30
2018-09-20T07:49:32.305Z,22.40
2018-09-20T07:51:35.855Z,22.50
2018-09-20T07:53:39.449Z,22.40
2018-09-20T07:55:43.142Z,22.40
2018-09-20T07:57:46.923Z,22.50
2018-09-20T07:59:50.522Z,22.60
2018-09-20T08:01:54.258Z,22.60
2018-09-20T08:03:57.696Z,22.70
2018-09-20T08:06:01.274Z,22.80
2018-09-20T08:08:04.768Z,22.80
2018-09-20T08:10:08.307Z,22.70
2018-09-20T08:12:11.849Z,22.80
2018-09-20T08:14:15.370Z,22.90
2018-09-20T08:16:19.015Z,23.00
2018-09-20T08:18:22.710Z,23.00
2018-09-20T08:20:26.303Z,23.10
2018-09-20T08:22:29.977Z,23.20
2018-09-20T08:24:33.707Z,23.20
2018-09-20T08:26:37.250Z,23.30
2018-09-20T08:28:40.808Z,23.20
2018-09-20T08:30:44.501Z,23.30
2018-09-20T08:32:48.008Z,23.20
2018-09-20T08:34:51.691Z,23.20
2018-09-20T08:36:55.277Z,23.30
2018-09-20T08:38:58.971Z,23.50
2018-09-20T08:41:02.506Z,23.80
2018-09-20T08:43:06.052Z,23.70
2018-09-20T08:45:09.696Z,23.80
2018-09-20T08:47:13.173Z,23.90
2018-09-20T08:49:16.795Z,24.10
2018-09-20T08:51:20.444Z,24.20
2018-09-20T08:53:24.079Z,24.20
2018-09-20T08:55:28.632Z,24.20
2018-09-20T08:57:37.923Z,24.30
2018-09-20T08:59:41.541Z,24.30
2018-09-20T09:01:45.083Z,24.30
2018-09-20T09:03:48.612Z,24.40
2018-09-20T09:05:52.357Z,24.50
2018-09-20T09:07:55.883Z,24.30
2018-09-20T09:09:59.487Z,24.10
2018-09-20T09:12:03.150Z,24.30
2018-09-20T09:14:07.287Z,23.90
2018-09-20T09:16:10.792Z,23.80
2018-09-20T09:18:14.305Z,24.00
2018-09-20T09:20:17.870Z,24.20
2018-09-20T09:22:21.390Z,24.20
2018-09-20T09:24:25.016Z,24.60
2018-09-20T09:26:28.656Z,24.90
2018-09-20T09:28:32.390Z,25.10
2018-09-20T09:30:35.899Z,25.00
2018-09-20T09:32:39.557Z,25.20
2018-09-20T09:34:43.104Z,25.40
2018-09-20T09:36:46.588Z,25.40
2018-09-20T09:38:50.115Z,25.30
2018-09-20T09:40:53.915Z,25.50
2018-09-20T09:42:57.418Z,25.50
2018-09-20T09:45:00.882Z,25.60
2018-09-20T09:47:04.613Z,25.80
2018-09-20T09:49:08.135Z,26.00
2018-09-20T09:51:11.707Z,26.20
2018-09-20T09:53:15.219Z,26.30
2018-09-20T09:55:18.780Z,26.40
2018-09-20T09:57:22.353Z,26.10
2018-09-20T09:59:25.966Z,26.40
2018-09-20T10:01:29.489Z,26.40
2018-09-20T10:03:33.148Z,25.80
2018-09-20T10:05:36.655Z,25.80
2018-09-20T10:07:40.187Z,25.50
2018-09-20T10:09:43.698Z,25.60
2018-09-20T10:11:47.340Z,25.90
2018-09-20T10:13:50.876Z,26.30
2018-09-20T10:15:54.411Z,26.40
2018-09-20T10:17:58.160Z,26.70
2018-09-20T10:20:01.827Z,26.80
2018-09-20T10:22:05.361Z,26.70
2018-09-20T10:24:09.185Z,26.80
2018-09-20T10:26:12.764Z,26.80
2018-09-20T10:28:16.366Z,26.80
2018-09-20T10:30:19.829Z,27.00
2018-09-20T10:32:23.344Z,27.00
2018-09-20T10:34:27.001Z,27.30
2018-09-20T10:36:30.776Z,26.90
2018-09-20T10:38:34.320Z,26.90
2018-09-20T10:40:37.918Z,26.80
2018-09-20T10:42:41.550Z,26.80
2018-09-20T10:44:45.049Z,27.10
2018-09-20T10:46:48.535Z,27.40
2018-09-20T10:48:52.055Z,27.60
2018-09-20T10:50:55.657Z,27.50
2018-09-20T10:52:59.211Z,27.30
2018-09-20T10:55:02.748Z,27.50
2018-09-20T10:57:06.416Z,27.40
2018-09-20T10:59:09.912Z,27.30
2018-09-20T11:01:13.509Z,27.40
2018-09-20T11:03:17.051Z,27.40
2018-09-20T11:05:20.525Z,27.50
2018-09-20T11:07:24.027Z,27.60
2018-09-20T11:09:27.735Z,27.90
2018-09-20T11:11:31.252Z,28.00
2018-09-20T11:13:34.768Z,27.90
2018-09-20T11:15:38.372Z,28.00
2018-09-20T11:17:42.100Z,27.90
2018-09-20T11:19:45.897Z,27.90
2018-09-20T11:21:49.546Z,27.60
2018-09-20T11:23:53.072Z,27.80
2018-09-20T11:25:56.700Z,27.60
2018-09-20T11:28:00.223Z,27.30
2018-09-20T11:30:03.857Z,27.40
2018-09-20T11:32:07.460Z,27.50
2018-09-20T11:34:11.533Z,27.70
2018-09-20T11:36:15.120Z,28.00
2018-09-20T11:38:18.696Z,27.70
2018-09-20T11:40:22.200Z,27.50
2018-09-20T11:42:25.726Z,27.30
2018-09-20T11:44:29.358Z,27.50
2018-09-20T11:46:32.912Z,27.60
2018-09-20T11:48:36.412Z,27.70
2018-09-20T11:50:39.988Z,28.10
2018-09-20T11:52:43.476Z,28.30
2018-09-20T11:54:47.167Z,28.20
2018-09-20T11:56:50.744Z,28.20
2018-09-20T11:58:54.331Z,28.10
2018-09-20T12:00:57.921Z,28.20
2018-09-20T12:03:01.425Z,28.40
2018-09-20T12:05:05.272Z,28.10
2018-09-20T12:07:08.799Z,28.20
2018-09-20T12:09:12.351Z,28.50
2018-09-20T12:11:15.984Z,28.40
2018-09-20T12:13:19.614Z,28.90
2018-09-20T12:15:23.202Z,28.60
2018-09-20T12:17:26.806Z,28.70
2018-09-20T12:19:30.315Z,28.80
2018-09-20T12:21:33.829Z,28.90
2018-09-20T12:23:37.533Z,28.90
2018-09-20T12:25:41.073Z,28.70
2018-09-20T12:27:44.629Z,28.60
2018-09-20T12:29:48.219Z,28.80
2018-09-20T12:31:51.796Z,28.80
2018-09-20T12:33:55.305Z,28.70
2018-09-20T12:35:59.081Z,28.80
2018-09-20T12:38:02.632Z,28.70
2018-09-20T12:40:07.669Z,28.50
2018-09-20T12:42:11.167Z,28.80
2018-09-20T12:44:14.684Z,28.70
2018-09-20T12:46:18.207Z,29.10
2018-09-20T12:48:21.779Z,29.50
2018-09-20T12:50:25.404Z,29.50
2018-09-20T12:52:29.289Z,29.10
2018-09-20T12:54:32.852Z,29.20
2018-09-20T12:56:36.379Z,29.20
2018-09-20T12:58:46.967Z,29.00
2018-09-20T13:00:50.609Z,29.00
2018-09-20T13:02:54.174Z,29.40
2018-09-20T13:04:57.692Z,29.50
2018-09-20T13:07:01.368Z,29.60
2018-09-20T13:09:07.792Z,29.50
2018-09-20T13:11:11.556Z,29.40
2018-09-20T13:13:15.105Z,29.50
2018-09-20T13:15:18.654Z,29.50
2018-09-20T13:17:22.207Z,29.40
2018-09-20T13:19:25.768Z,29.50
2018-09-20T13:21:29.337Z,29.60
2018-09-20T13:23:32.859Z,29.40
2018-09-20T13:25:36.425Z,29.20
2018-09-20T13:27:39.962Z,29.20
2018-09-20T13:29:43.583Z,29.60
2018-09-20T13:31:47.182Z,29.80
2018-09-20T13:33:50.692Z,29.70
2018-09-20T13:35:54.256Z,29.70
2018-09-20T13:37:57.856Z,29.80
2018-09-20T13:40:01.397Z,29.60
2018-09-20T13:42:04.939Z,29.30
2018-09-20T13:44:08.494Z,29.30
2018-09-20T13:46:12.105Z,29.60
2018-09-20T13:48:15.765Z,29.70
2018-09-20T13:50:19.385Z,30.00
2018-09-20T13:52:22.914Z,29.80
2018-09-20T13:54:26.435Z,29.90
2018-09-20T13:56:30.049Z,30.00
2018-09-20T13:58:33.520Z,30.10
2018-09-20T14:00:37.080Z,30.00
2018-09-20T14:02:40.631Z,30.00
2018-09-20T14:04:44.129Z,30.10
2018-09-20T14:06:47.616Z,29.90
2018-09-20T14:08:51.212Z,29.70
2018-09-20T14:10:54.779Z,29.90
2018-09-20T14:12:58.364Z,30.10
2018-09-20T14:15:01.913Z,30.20
2018-09-20T14:17:12.232Z,30.10
2018-09-20T14:19:15.764Z,29.50
2018-09-20T14:21:19.442Z,29.60
2018-09-20T14:23:23.011Z,29.50
2018-09-20T14:25:26.522Z,29.70
2018-09-20T14:27:30.036Z,29.50
2018-09-20T14:29:33.559Z,29.70
2018-09-20T14:31:37.048Z,29.60
2018-09-20T14:33:40.564Z,29.80
2018-09-20T14:35:44.112Z,29.70
2018-09-20T14:37:47.605Z,29.80
2018-09-20T14:39:51.635Z,30.00
2018-09-20T14:41:55.267Z,29.70
2018-09-20T14:43:58.893Z,29.90
2018-09-20T14:46:02.411Z,30.10
2018-09-20T14:48:06.040Z,30.00
2018-09-20T14:50:09.704Z,30.00
2018-09-20T14:52:13.301Z,29.90
2018-09-20T14:54:16.810Z,30.00
2018-09-20T14:56:20.543Z,29.90
2018-09-20T14:58:24.067Z,29.60
2018-09-20T15:00:27.689Z,30.00
2018-09-20T15:02:31.338Z,30.20
2018-09-20T15:04:34.839Z,30.30
2018-09-20T15:06:38.358Z,30.20
2018-09-20T15:08:41.883Z,30.20
2018-09-20T15:10:45.407Z,30.00
2018-09-20T15:12:49.105Z,30.00
2018-09-20T15:14:52.689Z,29.30
2018-09-20T15:16:56.452Z,29.50
2018-09-20T15:19:00.136Z,30.00
2018-09-20T15:21:03.652Z,30.40
2018-09-20T15:23:07.200Z,30.60
2018-09-20T15:25:10.729Z,30.90
2018-09-20T15:27:14.231Z,31.10
2018-09-20T15:29:17.752Z,31.50
2018-09-20T15:31:21.332Z,31.60
2018-09-20T15:33:24.883Z,31.60
2018-09-20T15:35:28.426Z,31.30
2018-09-20T15:37:31.924Z,31.30
2018-09-20T15:39:35.496Z,31.00
2018-09-20T15:41:39.043Z,31.10
2018-09-20T15:43:43.320Z,30.80
2018-09-20T15:45:47.311Z,30.60
2018-09-20T15:47:52.910Z,30.50
2018-09-20T15:49:56.620Z,30.60
2018-09-20T15:52:00.302Z,30.40
2018-09-20T15:54:03.889Z,30.40
2018-09-20T15:56:07.468Z,30.50
2018-09-20T15:58:11.109Z,30.30
2018-09-20T16:00:14.817Z,30.10
2018-09-20T16:02:18.406Z,30.20
2018-09-20T16:04:21.923Z,30.20
2018-09-20T16:06:25.653Z,30.20
2018-09-20T16:08:29.428Z,30.20
2018-09-20T16:10:32.995Z,30.00
2018-09-20T16:12:37.034Z,29.80
2018-09-20T16:14:40.568Z,29.80
2018-09-20T16:16:44.103Z,29.70
2018-09-20T16:18:47.659Z,29.90
2018-09-20T16:20:51.300Z,29.90
2018-09-20T16:22:54.868Z,29.90
2018-09-20T16:24:58.384Z,30.00
2018-09-20T16:27:02.078Z,29.90
2018-09-20T16:29:21.209Z,29.70
2018-09-20T16:31:38.460Z,29.60
2018-09-20T16:33:57.596Z,29.50
2018-09-20T16:37:13.620Z,29.30
2018-09-20T16:39:23.624Z,29.50
2018-09-20T16:41:38.112Z,29.30
2018-09-20T16:43:41.651Z,29.40
2018-09-20T16:45:45.168Z,29.30
2018-09-20T16:47:48.960Z,29.10
2018-09-20T16:49:52.493Z,29.10
2018-09-20T16:51:56.020Z,29.10
2018-09-20T16:53:59.664Z,29.00
2018-09-20T16:56:03.270Z,28.90
2018-09-20T16:58:06.772Z,28.80
2018-09-20T17:00:12.007Z,28.80
2018-09-20T17:02:15.535Z,28.70
2018-09-20T17:04:19.159Z,28.60
2018-09-20T17:06:22.684Z,28.60
2018-09-20T17:08:26.175Z,28.50
2018-09-20T17:10:29.735Z,28.50
2018-09-20T17:12:33.275Z,28.40
2018-09-20T17:14:36.894Z,28.30
2018-09-20T17:16:40.403Z,28.20
2018-09-20T17:18:43.997Z,28.20
2018-09-20T17:20:54.436Z,28.10
2018-09-20T17:22:58.106Z,28.10
2018-09-20T17:25:01.810Z,27.90
2018-09-20T17:27:05.718Z,27.80
2018-09-20T17:29:09.268Z,27.80
2018-09-20T17:31:12.836Z,27.60
2018-09-20T17:33:16.479Z,27.50
2018-09-20T17:35:21.385Z,27.50
2018-09-20T17:37:26.021Z,27.20
2018-09-20T17:39:30.367Z,27.00
2018-09-20T17:41:35.443Z,26.70
2018-09-20T17:43:43.621Z,26.50
2018-09-20T17:45:47.228Z,26.60
2018-09-20T17:47:50.850Z,26.80
2018-09-20T17:49:54.668Z,26.90
2018-09-20T17:51:58.615Z,26.90
2018-09-20T17:54:02.561Z,26.80
2018-09-20T17:56:06.921Z,26.80
2018-09-20T17:58:10.959Z,26.70
2018-09-20T18:00:14.510Z,26.70
2018-09-20T18:02:18.181Z,26.60
2018-09-20T18:04:21.742Z,26.60
2018-09-20T18:06:25.339Z,26.50
2018-09-20T18:08:28.939Z,26.50
2018-09-20T18:10:32.629Z,26.40
2018-09-20T18:12:36.210Z,26.30
2018-09-20T18:14:39.871Z,26.00
2018-09-20T18:16:43.783Z,25.80
2018-09-20T18:18:47.467Z,25.50
2018-09-20T18:20:51.048Z,25.40
2018-09-20T18:23:24.107Z,25.40
2018-09-20T18:25:27.785Z,25.40
2018-09-20T18:27:31.377Z,25.60
2018-09-20T18:29:34.924Z,25.60
2018-09-20T18:31:38.605Z,25.70
2018-09-20T18:33:42.288Z,25.80
2018-09-20T18:35:45.992Z,25.80
2018-09-20T18:37:49.909Z,25.70
2018-09-20T18:39:53.915Z,25.60
2018-09-20T18:41:57.560Z,25.30
2018-09-20T18:44:01.175Z,24.90
2018-09-20T18:46:04.796Z,24.90
2018-09-20T18:48:08.567Z,24.90
2018-09-20T18:50:12.128Z,24.90
2018-09-20T18:52:15.838Z,24.90
2018-09-20T18:54:19.589Z,24.90
2018-09-20T18:56:23.137Z,24.70
2018-09-20T18:58:26.864Z,24.50
2018-09-20T19:00:30.484Z,24.60
2018-09-20T19:02:34.098Z,24.40
2018-09-20T19:04:37.696Z,24.50
2018-09-20T19:06:41.490Z,24.60
2018-09-20T19:08:45.067Z,24.60
2018-09-20T19:10:48.693Z,24.60
2018-09-20T19:12:52.309Z,24.70
2018-09-20T19:14:56.163Z,24.60
2018-09-20T19:16:59.768Z,24.40
2018-09-20T19:19:03.702Z,24.50
2018-09-20T19:21:07.537Z,24.60
2018-09-20T19:23:11.205Z,24.40
2018-09-20T19:25:14.826Z,24.10
2018-09-20T19:27:18.442Z,24.10
2018-09-20T19:29:22.034Z,24.00
2018-09-20T19:31:25.640Z,24.00
2018-09-20T19:33:29.473Z,24.20
2018-09-20T19:35:33.659Z,24.20
2018-09-20T19:37:37.201Z,24.00
2018-09-20T19:39:40.844Z,23.40
2018-09-20T19:41:44.715Z,23.20
2018-09-20T19:43:48.456Z,23.40
2018-09-20T19:45:52.155Z,23.70
2018-09-20T19:47:55.777Z,23.90
2018-09-20T19:49:59.510Z,23.60
2018-09-20T19:52:03.274Z,23.60
2018-09-20T19:54:06.892Z,23.80
2018-09-20T19:56:10.502Z,23.90
2018-09-20T19:58:14.111Z,23.90
2018-09-20T20:00:17.734Z,23.70
2018-09-20T20:02:21.298Z,23.80
2018-09-20T20:04:25.092Z,23.50
2018-09-20T20:06:28.629Z,23.50
2018-09-20T20:08:32.261Z,23.50
2018-09-20T20:10:35.909Z,23.70
2018-09-20T20:12:39.500Z,23.70
2018-09-20T20:14:43.077Z,23.70
2018-09-20T20:16:46.699Z,22.40
2018-09-20T20:18:50.428Z,23.40
2018-09-20T20:20:54.069Z,23.10
2018-09-20T20:22:57.672Z,23.20
2018-09-20T20:25:01.285Z,23.20
2018-09-20T20:27:05.071Z,23.20
2018-09-20T20:29:08.793Z,23.20
2018-09-20T20:31:12.374Z,23.30
2018-09-20T20:33:15.950Z,23.30
2018-09-20T20:35:19.548Z,23.30
2018-09-20T20:37:23.119Z,23.30
2018-09-20T20:39:26.708Z,23.40
2018-09-20T20:41:30.441Z,23.20
2018-09-20T20:43:34.121Z,23.20
2018-09-20T20:45:37.733Z,23.10
2018-09-20T20:47:41.523Z,22.40
2018-09-20T20:49:45.275Z,22.10
2018-09-20T20:51:49.049Z,22.00
2018-09-20T20:53:52.565Z,22.10
2018-09-20T20:55:56.165Z,22.20
2018-09-20T20:57:59.792Z,22.50
2018-09-20T21:00:03.403Z,22.60
2018-09-20T21:02:06.993Z,22.70
2018-09-20T21:04:10.540Z,22.80
2018-09-20T21:06:14.197Z,22.70
2018-09-20T21:08:17.943Z,22.70
2018-09-20T21:10:21.504Z,22.60
2018-09-20T21:12:25.164Z,22.60
2018-09-20T21:14:28.822Z,22.60
2018-09-20T21:16:32.517Z,22.70
2018-09-20T21:18:36.270Z,22.70
2018-09-20T21:20:39.993Z,22.70
2018-09-20T21:22:43.571Z,22.70
2018-09-20T21:24:47.235Z,22.70
2018-09-20T21:26:50.832Z,22.70
2018-09-20T21:28:54.411Z,22.50
2018-09-20T21:30:58.245Z,22.00
2018-09-20T21:33:01.947Z,21.80
2018-09-20T21:35:05.883Z,21.80
2018-09-20T21:37:09.532Z,21.70
2018-09-20T21:39:13.371Z,21.80
2018-09-20T21:41:17.139Z,22.00
2018-09-20T21:43:20.667Z,22.00
2018-09-20T21:45:24.273Z,22.00
2018-09-20T21:47:27.938Z,22.10
2018-09-20T21:49:31.751Z,22.20
2018-09-20T21:51:35.333Z,22.30
2018-09-20T21:53:39.026Z,22.20
2018-09-20T21:55:42.798Z,22.20
2018-09-20T21:57:46.445Z,22.20
2018-09-20T21:59:50.034Z,22.10
2018-09-20T22:01:58.863Z,21.90
2018-09-20T22:04:04.504Z,21.80
2018-09-20T22:06:08.103Z,21.70
2018-09-20T22:08:11.809Z,21.80
2018-09-20T22:10:15.373Z,21.90
2018-09-20T22:12:19.121Z,21.90
2018-09-20T22:14:22.710Z,21.80
2018-09-20T22:16:26.388Z,21.80
2018-09-20T22:18:29.989Z,21.80
2018-09-20T22:20:33.560Z,21.90
2018-09-20T22:22:37.095Z,21.90
2018-09-20T22:24:40.712Z,21.70
2018-09-20T22:26:44.387Z,21.70
2018-09-20T22:28:48.086Z,21.40
2018-09-20T22:30:51.711Z,21.30
2018-09-20T22:32:55.502Z,21.50
2018-09-20T22:34:59.075Z,21.10
2018-09-20T22:37:02.757Z,21.20
2018-09-20T22:39:08.737Z,21.30
2018-09-20T22:41:12.344Z,21.30
2018-09-20T22:43:15.876Z,21.20
2018-09-20T22:45:19.672Z,20.90
2018-09-20T22:47:23.268Z,20.80
2018-09-20T22:49:26.986Z,20.90
2018-09-20T22:51:30.748Z,21.20
2018-09-20T22:53:34.449Z,21.20
2018-09-20T22:55:38.036Z,21.20
2018-09-20T22:57:41.568Z,21.00
2018-09-20T22:59:45.751Z,20.90
2018-09-20T23:01:49.488Z,20.80
2018-09-20T23:03:53.159Z,20.60
2018-09-20T23:05:56.831Z,20.60
2018-09-20T23:08:00.434Z,20.80
2018-09-20T23:10:04.071Z,20.90
2018-09-20T23:12:07.650Z,20.90
2018-09-20T23:14:11.312Z,20.70
2018-09-20T23:16:15.139Z,20.30
2018-09-20T23:18:18.809Z,20.30
2018-09-20T23:20:22.477Z,20.50
2018-09-20T23:22:26.089Z,20.70
2018-09-20T23:24:29.729Z,21.00
2018-09-20T23:26:33.470Z,21.10
2018-09-20T23:28:37.487Z,21.10
2018-09-20T23:30:41.107Z,21.10
2018-09-20T23:32:44.853Z,21.20
2018-09-20T23:34:48.381Z,21.00
2018-09-20T23:36:51.963Z,20.80
2018-09-20T23:38:55.593Z,20.80
2018-09-20T23:40:59.330Z,20.90
2018-09-20T23:43:02.907Z,21.00
2018-09-20T23:45:06.518Z,21.00
2018-09-20T23:47:10.311Z,21.00
2018-09-20T23:49:14.100Z,21.00
2018-09-20T23:51:17.647Z,21.00
2018-09-20T23:53:21.322Z,20.90
2018-09-20T23:55:25.095Z,20.90
2018-09-20T23:57:28.674Z,20.80
2018-09-20T23:59:32.428Z,20.90
